Time;durP1;ratioP1;P1;durP2;ratioP2;P2;SDS_P1;SDS_P2;PMS_P1;PMS_P2;Temp;Humidity;BMP_temperature;BMP_pressure;BME280_temperature;BME280_humidity;BME280_pressure;Samples;Min_cycle;Max_cycle;Signal;HPM_P1;HPM_P2
2022/03/09 00:02:07;;;;;;;11.70;6.70;;;4.20;99.90;;;;;;4425166;32;20190;-71
2022/03/09 00:04:34;;;;;;;14.73;7.90;;;4.20;99.90;;;;;;4424639;32;20229;-72
2022/03/09 00:07:01;;;;;;;15.20;7.50;;;4.20;99.90;;;;;;4425462;32;20212;-72
2022/03/09 00:09:28;;;;;;;16.63;7.90;;;4.10;99.90;;;;;;4426815;32;20170;-72
2022/03/09 00:11:55;;;;;;;16.30;8.13;;;4.10;99.90;;;;;;4424350;32;20178;-72
2022/03/09 00:14:21;;;;;;;19.03;7.97;;;4.10;99.90;;;;;;4424454;32;20466;-72
2022/03/09 00:16:48;;;;;;;19.13;9.03;;;4.00;99.90;;;;;;4425042;32;20179;-72
2022/03/09 00:19:15;;;;;;;20.47;9.07;;;4.00;99.90;;;;;;4425828;32;20138;-72
2022/03/09 00:21:42;;;;;;;20.73;8.80;;;3.90;99.90;;;;;;4425129;32;20148;-72
2022/03/09 00:24:09;;;;;;;17.00;9.10;;;3.90;99.90;;;;;;4424053;32;20487;-71
2022/03/09 00:26:36;;;;;;;17.93;8.37;;;3.90;99.90;;;;;;4425861;32;20225;-71
2022/03/09 00:29:04;;;;;;;21.03;8.50;;;3.90;99.90;;;;;;4424643;32;20186;-72
2022/03/09 00:31:31;;;;;;;21.00;9.13;;;3.90;99.90;;;;;;4423747;32;20190;-72
2022/03/09 00:33:58;;;;;;;20.67;8.57;;;4.00;99.90;;;;;;4425337;32;20242;-72
2022/03/09 00:36:24;;;;;;;14.63;8.17;;;4.00;99.90;;;;;;4423874;32;20248;-71
2022/03/09 00:38:51;;;;;;;19.27;8.60;;;4.00;99.90;;;;;;4424752;32;20198;-72
2022/03/09 00:41:18;;;;;;;18.47;8.40;;;4.00;99.90;;;;;;4423614;32;20225;-72
2022/03/09 00:43:45;;;;;;;17.60;8.57;;;4.00;99.90;;;;;;4425212;32;20499;-72
2022/03/09 00:46:12;;;;;;;16.67;7.80;;;4.00;99.90;;;;;;4425177;32;20378;-72
2022/03/09 00:48:39;;;;;;;15.90;8.23;;;3.90;99.90;;;;;;4423857;32;20228;-71
2022/03/09 00:51:07;;;;;;;16.47;8.27;;;3.90;99.90;;;;;;4424344;32;20174;-71
2022/03/09 00:53:37;;;;;;;17.70;8.33;;;3.90;99.90;;;;;;4425145;32;20224;-72
2022/03/09 00:56:05;;;;;;;17.27;8.37;;;4.00;99.90;;;;;;4423743;32;20183;-73
2022/03/09 00:58:32;;;;;;;15.57;8.27;;;4.00;99.90;;;;;;4425567;32;20182;-72
2022/03/09 01:00:59;;;;;;;18.37;8.03;;;4.10;99.90;;;;;;4425197;32;20411;-72
2022/03/09 01:03:26;;;;;;;21.57;8.20;;;4.10;99.90;;;;;;4424879;32;20395;-72
2022/03/09 01:05:55;;;;;;;17.60;8.00;;;4.10;99.90;;;;;;4425014;32;20541;-72
2022/03/09 01:08:22;;;;;;;16.97;8.57;;;4.10;99.90;;;;;;4423601;32;20494;-72
2022/03/09 01:10:48;;;;;;;18.80;7.90;;;4.10;99.90;;;;;;4423470;32;20186;-72
2022/03/09 01:13:15;;;;;;;16.37;8.40;;;4.10;99.90;;;;;;4426239;32;20143;-72
2022/03/09 01:15:42;;;;;;;18.43;8.40;;;4.10;99.90;;;;;;4423199;32;20199;-72
2022/03/09 01:18:09;;;;;;;16.20;8.00;;;4.10;99.90;;;;;;4424029;32;20291;-71
2022/03/09 01:20:36;;;;;;;14.60;7.70;;;4.00;99.90;;;;;;4423264;32;20220;-72
2022/03/09 01:23:03;;;;;;;17.40;8.20;;;4.10;99.90;;;;;;4423147;32;20244;-72
2022/03/09 01:25:30;;;;;;;18.10;8.17;;;4.10;99.90;;;;;;4424052;32;20194;-72
2022/03/09 01:27:57;;;;;;;16.57;8.13;;;4.20;99.90;;;;;;4423974;32;20482;-72
2022/03/09 01:30:25;;;;;;;16.00;7.40;;;4.20;99.90;;;;;;4424255;32;20237;-72
2022/03/09 01:32:52;;;;;;;14.63;7.83;;;4.30;99.90;;;;;;4424033;32;20206;-72
2022/03/09 01:35:19;;;;;;;17.43;7.93;;;4.30;99.90;;;;;;4424216;32;20174;-72
2022/03/09 01:37:49;;;;;;;15.37;7.67;;;4.40;99.90;;;;;;4424041;32;20167;-72
2022/03/09 01:40:16;;;;;;;13.97;7.63;;;4.40;99.90;;;;;;4424655;32;20190;-72
2022/03/09 01:42:43;;;;;;;18.77;8.07;;;4.40;99.90;;;;;;4424592;32;20173;-72
2022/03/09 01:45:13;;;;;;;16.73;7.97;;;4.40;99.90;;;;;;4424411;32;20194;-72
2022/03/09 01:47:40;;;;;;;13.53;7.03;;;4.30;99.90;;;;;;4422809;32;20421;-72
2022/03/09 01:50:11;;;;;;;17.00;7.70;;;4.30;99.90;;;;;;4424501;32;20174;-72
2022/03/09 01:52:40;;;;;;;18.97;8.63;;;4.40;99.90;;;;;;4423372;32;20429;-72
2022/03/09 01:55:07;;;;;;;16.00;8.23;;;4.40;99.90;;;;;;4422828;32;20233;-72
2022/03/09 01:57:35;;;;;;;15.67;7.70;;;4.50;99.90;;;;;;4425871;32;20151;-71
2022/03/09 02:00:04;;;;;;;17.97;7.90;;;4.40;99.90;;;;;;4423312;32;20303;-72
2022/03/09 02:02:31;;;;;;;18.43;8.33;;;4.30;99.90;;;;;;4423992;32;20605;-72
2022/03/09 02:04:58;;;;;;;18.50;8.50;;;4.20;99.90;;;;;;4422808;32;20190;-72
2022/03/09 02:10:12;;;;;;;16.23;7.43;;;4.10;99.90;;;;;;4425692;32;20546;-72
2022/03/09 02:12:39;;;;;;;17.93;8.20;;;4.10;99.90;;;;;;4425003;32;20194;-72
2022/03/09 02:15:07;;;;;;;16.63;7.60;;;4.10;99.90;;;;;;4439787;32;20182;-72
2022/03/09 02:17:34;;;;;;;15.77;8.37;;;4.10;99.90;;;;;;4425657;32;20416;-72
2022/03/09 02:20:02;;;;;;;17.53;7.93;;;4.10;99.90;;;;;;4425246;32;20198;-71
2022/03/09 02:22:34;;;;;;;17.97;8.57;;;4.00;99.90;;;;;;4425307;32;20182;-72
2022/03/09 02:25:08;;;;;;;16.67;8.07;;;4.00;99.90;;;;;;4412749;32;20178;-72
2022/03/09 02:27:36;;;;;;;16.93;8.13;;;3.90;99.90;;;;;;4426974;32;20509;-72
2022/03/09 02:30:06;;;;;;;17.10;8.37;;;3.90;99.90;;;;;;4426632;32;20170;-71
2022/03/09 02:32:33;;;;;;;16.73;8.40;;;3.90;99.90;;;;;;4426031;32;20171;-72
2022/03/09 02:35:01;;;;;;;15.70;7.87;;;4.00;99.90;;;;;;4439621;32;20189;-71
2022/03/09 02:37:28;;;;;;;14.57;7.53;;;4.00;99.90;;;;;;4425877;32;20158;-71
2022/03/09 02:39:54;;;;;;;17.03;7.90;;;4.00;99.90;;;;;;4439119;32;20162;-71
2022/03/09 02:42:21;;;;;;;16.50;8.40;;;4.00;99.90;;;;;;4439349;32;20542;-72
2022/03/09 02:44:48;;;;;;;17.60;8.47;;;3.90;99.90;;;;;;4425101;32;20198;-72
2022/03/09 02:47:15;;;;;;;15.73;7.43;;;4.00;99.90;;;;;;4439867;32;20209;-72
2022/03/09 02:49:42;;;;;;;15.20;7.67;;;4.00;99.90;;;;;;4425050;32;20441;-72
2022/03/09 02:52:10;;;;;;;15.10;7.90;;;4.00;99.90;;;;;;4424934;32;20177;-72
2022/03/09 02:54:37;;;;;;;15.27;7.97;;;4.10;99.90;;;;;;4424815;32;20182;-72
2022/03/09 02:57:06;;;;;;;18.70;7.67;;;4.10;99.90;;;;;;4424661;32;20506;-72
2022/03/09 02:59:32;;;;;;;13.63;7.60;;;4.10;99.90;;;;;;4426034;32;20170;-71
2022/03/09 03:01:59;;;;;;;16.67;7.87;;;4.00;99.90;;;;;;4439925;32;20151;-71
2022/03/09 03:04:26;;;;;;;14.90;7.80;;;4.00;99.90;;;;;;4424650;32;20191;-72
2022/03/09 03:06:54;;;;;;;17.00;8.33;;;4.00;99.90;;;;;;4424899;32;20196;-72
2022/03/09 03:09:20;;;;;;;16.20;7.90;;;3.90;99.90;;;;;;4425841;32;20197;-72
2022/03/09 03:11:47;;;;;;;19.77;8.90;;;3.90;99.90;;;;;;4424785;32;20225;-72
2022/03/09 03:14:14;;;;;;;17.97;8.23;;;3.90;99.90;;;;;;4424654;32;20213;-71
2022/03/09 03:16:41;;;;;;;17.70;8.40;;;4.00;99.90;;;;;;4424673;32;20182;-72
2022/03/09 03:19:08;;;;;;;18.47;8.80;;;4.00;99.90;;;;;;4424636;32;20182;-71
2022/03/09 03:21:35;;;;;;;18.60;8.60;;;4.00;99.90;;;;;;4425724;32;20213;-71
2022/03/09 03:24:02;;;;;;;20.03;8.50;;;4.00;99.90;;;;;;4440315;32;20196;-71
2022/03/09 03:26:29;;;;;;;18.30;8.90;;;3.90;99.90;;;;;;4424815;32;20198;-71
2022/03/09 03:28:58;;;;;;;19.43;8.50;;;3.90;99.90;;;;;;4439457;32;20178;-72
2022/03/09 03:31:28;;;;;;;18.30;8.50;;;3.90;99.90;;;;;;4438573;32;20407;-71
2022/03/09 03:33:55;;;;;;;18.83;8.00;;;4.00;99.90;;;;;;4424546;32;20171;-71
2022/03/09 03:36:22;;;;;;;17.40;8.50;;;4.00;99.90;;;;;;4424655;32;20197;-71
2022/03/09 03:38:52;;;;;;;18.00;8.10;;;4.00;99.90;;;;;;4426992;32;20532;-72
2022/03/09 03:41:19;;;;;;;21.73;9.00;;;4.00;99.90;;;;;;4427032;32;20205;-71
2022/03/09 03:43:46;;;;;;;17.77;8.80;;;3.90;99.90;;;;;;4427340;32;20571;-71
2022/03/09 03:46:13;;;;;;;19.47;8.97;;;3.90;99.90;;;;;;4426994;32;20178;-72
2022/03/09 03:48:40;;;;;;;17.53;8.17;;;3.90;99.90;;;;;;4428652;32;20171;-71
2022/03/09 03:51:07;;;;;;;17.63;8.40;;;3.90;99.90;;;;;;4428607;32;20218;-71
2022/03/09 03:53:34;;;;;;;20.10;9.37;;;3.90;99.90;;;;;;4426743;32;20528;-71
2022/03/09 03:56:01;;;;;;;18.80;9.33;;;3.90;99.90;;;;;;4427507;32;20508;-71
2022/03/09 03:58:28;;;;;;;20.50;9.33;;;4.00;99.90;;;;;;4427586;32;20174;-72
2022/03/09 04:00:58;;;;;;;19.90;9.00;;;4.00;99.90;;;;;;4428057;32;20475;-72
2022/03/09 04:03:25;;;;;;;17.80;9.13;;;4.00;99.90;;;;;;4427577;32;20520;-72
2022/03/09 04:05:52;;;;;;;20.47;9.17;;;4.00;99.90;;;;;;4428588;32;20218;-71
2022/03/09 04:08:19;;;;;;;18.63;8.67;;;4.10;99.90;;;;;;4427716;32;20235;-71
2022/03/09 04:10:46;;;;;;;15.73;8.90;;;4.10;99.90;;;;;;4426981;32;20274;-72
2022/03/09 04:13:13;;;;;;;17.97;9.10;;;4.10;99.90;;;;;;4427147;32;20377;-72
2022/03/09 04:15:40;;;;;;;19.93;9.07;;;4.10;99.90;;;;;;4428200;32;20206;-72
2022/03/09 04:18:07;;;;;;;19.07;9.17;;;4.00;99.90;;;;;;4441283;32;20154;-72
2022/03/09 04:20:33;;;;;;;18.60;9.07;;;4.00;99.90;;;;;;4426934;32;20520;-72
2022/03/09 04:23:00;;;;;;;20.77;9.57;;;3.90;99.90;;;;;;4441286;32;20155;-72
2022/03/09 04:25:29;;;;;;;17.93;8.70;;;3.80;99.90;;;;;;4441361;32;20205;-72
2022/03/09 04:27:56;;;;;;;23.37;9.03;;;3.80;99.90;;;;;;4442524;32;20200;-72
2022/03/09 04:30:23;;;;;;;19.67;8.87;;;3.80;99.90;;;;;;4426585;32;20179;-72
2022/03/09 04:32:50;;;;;;;21.13;9.27;;;3.80;99.90;;;;;;4426970;32;20261;-72
2022/03/09 04:35:17;;;;;;;19.40;9.43;;;3.70;99.90;;;;;;4413890;32;20432;-72
2022/03/09 04:37:44;;;;;;;20.93;9.10;;;3.70;99.90;;;;;;4426681;32;20182;-72
2022/03/09 04:40:12;;;;;;;22.47;9.47;;;3.70;99.90;;;;;;4425967;32;20182;-72
2022/03/09 04:42:39;;;;;;;19.23;9.20;;;3.70;99.90;;;;;;4427527;32;20190;-72
2022/03/09 04:45:06;;;;;;;18.97;9.03;;;3.80;99.90;;;;;;4440606;32;20775;-72
2022/03/09 04:47:33;;;;;;;20.80;9.60;;;3.70;99.90;;;;;;4440556;32;20146;-71
2022/03/09 04:50:00;;;;;;;19.87;9.00;;;3.80;99.90;;;;;;4426324;32;20193;-72
2022/03/09 04:52:27;;;;;;;19.20;8.93;;;3.80;99.90;;;;;;4440406;32;20444;-71
2022/03/09 04:54:53;;;;;;;20.60;9.17;;;3.90;99.90;;;;;;4427050;32;20205;-71
2022/03/09 04:57:20;;;;;;;19.20;8.97;;;3.90;99.90;;;;;;4427007;32;20201;-72
2022/03/09 04:59:47;;;;;;;20.10;8.73;;;4.00;99.90;;;;;;4426625;32;20374;-72
2022/03/09 05:02:14;;;;;;;17.73;8.70;;;4.00;99.90;;;;;;4426218;32;20197;-72
2022/03/09 05:04:42;;;;;;;20.43;8.93;;;4.00;99.90;;;;;;4426314;32;20167;-72
2022/03/09 05:07:09;;;;;;;16.93;8.67;;;4.00;99.90;;;;;;4427736;32;20178;-72
2022/03/09 05:09:36;;;;;;;17.83;9.03;;;4.10;99.90;;;;;;4425962;32;20237;-71
2022/03/09 05:12:03;;;;;;;19.00;9.17;;;4.10;99.90;;;;;;4408009;32;20189;-72
2022/03/09 05:14:32;;;;;;;18.17;8.83;;;4.10;99.90;;;;;;4420794;32;20420;-72
2022/03/09 05:16:59;;;;;;;20.87;9.30;;;4.10;99.90;;;;;;4422099;32;20221;-72
2022/03/09 05:19:26;;;;;;;20.57;8.83;;;4.10;99.90;;;;;;4410523;32;20502;-72
2022/03/09 05:21:53;;;;;;;19.13;8.67;;;4.00;99.90;;;;;;4420936;32;20439;-72
2022/03/09 05:24:39;;;;;;;20.37;8.93;;;4.10;99.90;;;;;;4410929;32;20158;-72
2022/03/09 05:27:06;;;;;;;17.73;8.30;;;4.10;99.90;;;;;;4409558;32;20544;-72
2022/03/09 05:29:33;;;;;;;20.77;8.30;;;4.20;99.90;;;;;;4420487;32;20170;-72
2022/03/09 05:31:59;;;;;;;17.43;8.93;;;4.20;99.90;;;;;;4409638;32;20176;-72
2022/03/09 05:34:27;;;;;;;16.83;8.53;;;4.20;99.90;;;;;;4421420;32;20487;-72
2022/03/09 05:36:54;;;;;;;17.90;8.50;;;4.20;99.90;;;;;;4420751;32;20233;-72
2022/03/09 05:39:20;;;;;;;20.40;8.60;;;4.20;99.90;;;;;;4409271;32;20139;-72
2022/03/09 05:41:47;;;;;;;17.50;7.83;;;4.20;99.90;;;;;;4408390;32;20221;-71
2022/03/09 05:44:15;;;;;;;16.50;8.37;;;4.30;99.90;;;;;;4408020;32;20183;-72
2022/03/09 05:46:42;;;;;;;16.10;8.17;;;4.30;99.90;;;;;;4420165;32;20209;-72
2022/03/09 05:49:09;;;;;;;15.87;7.83;;;4.30;99.90;;;;;;4407762;32;20201;-72
2022/03/09 05:51:36;;;;;;;17.47;7.73;;;4.30;99.90;;;;;;4408184;32;20203;-72
2022/03/09 05:54:03;;;;;;;15.57;8.13;;;4.30;99.90;;;;;;4407796;32;20198;-72
2022/03/09 05:56:30;;;;;;;16.80;8.20;;;4.20;99.90;;;;;;4408720;32;20175;-72
2022/03/09 05:58:57;;;;;;;15.47;7.73;;;4.20;99.90;;;;;;4420450;32;20244;-72
2022/03/09 06:01:23;;;;;;;14.00;7.53;;;4.20;99.90;;;;;;4418907;32;20212;-72
2022/03/09 06:03:50;;;;;;;13.50;7.60;;;4.30;99.90;;;;;;4407510;32;20194;-72
2022/03/09 06:06:17;;;;;;;13.80;6.90;;;4.30;99.90;;;;;;4408143;32;20171;-72
2022/03/09 06:08:47;;;;;;;17.93;7.97;;;4.30;99.90;;;;;;4419687;32;20428;-72
2022/03/09 06:11:14;;;;;;;16.37;7.23;;;4.40;99.90;;;;;;4415354;32;20183;-71
2022/03/09 06:13:41;;;;;;;19.27;7.47;;;4.50;99.90;;;;;;4422379;32;20552;-72
2022/03/09 06:16:08;;;;;;;14.87;7.00;;;4.50;99.90;;;;;;4423584;32;20158;-72
2022/03/09 06:18:36;;;;;;;13.60;6.93;;;4.60;99.90;;;;;;4422869;32;20203;-71
2022/03/09 06:21:03;;;;;;;14.10;6.47;;;4.60;99.90;;;;;;4422158;32;20189;-73
2022/03/09 06:23:30;;;;;;;17.33;7.40;;;4.70;99.90;;;;;;4422970;32;20586;-72
2022/03/09 06:25:57;;;;;;;14.70;6.70;;;4.70;99.90;;;;;;4422707;32;20167;-72
2022/03/09 06:28:24;;;;;;;15.90;6.80;;;4.70;99.90;;;;;;4423434;32;20178;-72
2022/03/09 06:30:53;;;;;;;11.70;6.10;;;4.80;99.90;;;;;;4422147;32;20179;-71
2022/03/09 06:33:20;;;;;;;15.00;6.43;;;4.80;99.90;;;;;;4423408;32;20190;-70
2022/03/09 06:35:47;;;;;;;12.93;6.13;;;4.80;99.90;;;;;;4423445;32;20234;-70
2022/03/09 06:38:14;;;;;;;14.83;6.50;;;4.90;99.90;;;;;;4423762;32;20193;-72
2022/03/09 06:40:42;;;;;;;16.60;6.20;;;5.00;99.90;;;;;;4423058;32;20198;-71
2022/03/09 06:43:09;;;;;;;14.13;5.93;;;5.00;99.90;;;;;;4422301;32;20176;-72
2022/03/09 06:45:36;;;;;;;14.77;6.83;;;5.10;99.90;;;;;;4421722;32;20594;-72
2022/03/09 06:48:04;;;;;;;14.07;6.27;;;5.20;99.90;;;;;;4425053;32;20246;-72
2022/03/09 06:50:32;;;;;;;12.10;6.60;;;5.20;99.90;;;;;;4422937;32;20603;-70
2022/03/09 06:52:58;;;;;;;12.90;6.87;;;5.20;99.90;;;;;;4421641;32;20540;-70
2022/03/09 06:55:26;;;;;;;12.83;6.53;;;5.30;99.90;;;;;;4423476;32;20150;-70
2022/03/09 06:57:53;;;;;;;14.43;6.63;;;5.30;99.90;;;;;;4422267;32;20249;-71
2022/03/09 07:00:19;;;;;;;14.77;6.63;;;5.40;99.90;;;;;;4422163;32;20242;-71
2022/03/09 07:02:46;;;;;;;14.30;7.33;;;5.50;99.90;;;;;;4423483;32;20211;-69
2022/03/09 07:05:14;;;;;;;12.97;6.30;;;5.60;99.90;;;;;;4423920;32;20174;-70
2022/03/09 07:07:42;;;;;;;11.93;6.43;;;5.70;99.90;;;;;;4423739;32;20154;-70
2022/03/09 07:10:13;;;;;;;14.97;7.10;;;5.70;99.90;;;;;;4424830;32;20457;-71
2022/03/09 07:12:43;;;;;;;14.10;6.77;;;5.70;99.90;;;;;;4426740;32;20495;-70
2022/03/09 07:15:11;;;;;;;14.23;6.33;;;5.80;99.90;;;;;;4428837;32;20178;-69
2022/03/09 07:17:38;;;;;;;15.37;6.13;;;5.90;99.90;;;;;;4427757;32;20456;-71
2022/03/09 07:20:06;;;;;;;9.87;5.53;;;5.90;99.90;;;;;;4443535;32;20148;-71
2022/03/09 07:22:42;;;;;;;12.47;6.07;;;6.00;99.90;;;;;;4427186;32;20211;-70
2022/03/09 07:25:10;;;;;;;12.60;5.87;;;6.10;99.90;;;;;;4427306;32;20230;-71
2022/03/09 07:27:37;;;;;;;12.27;5.10;;;6.10;99.90;;;;;;4428006;32;20167;-70
2022/03/09 07:30:06;;;;;;;10.97;5.10;;;6.00;99.90;;;;;;4429209;32;20180;-72
2022/03/09 07:32:32;;;;;;;11.13;5.73;;;6.00;99.90;;;;;;4414574;32;20178;-71
2022/03/09 07:35:15;;;;;;;10.20;5.03;;;6.00;99.90;;;;;;4428787;32;20195;-72
2022/03/09 07:37:42;;;;;;;12.53;5.53;;;6.10;99.90;;;;;;4426856;32;20182;-71
2022/03/09 07:40:09;;;;;;;10.53;5.50;;;6.00;99.90;;;;;;4427828;32;20258;-72
2022/03/09 07:42:36;;;;;;;13.77;5.40;;;6.10;99.90;;;;;;4427139;32;20226;-71
2022/03/09 07:45:07;;;;;;;7.83;4.57;;;6.20;99.90;;;;;;4427125;32;20235;-71
2022/03/09 07:47:35;;;;;;;11.40;4.90;;;6.40;99.90;;;;;;4428193;32;20212;-69
2022/03/09 07:50:06;;;;;;;10.63;4.67;;;6.60;99.90;;;;;;4441229;32;20398;-72
2022/03/09 07:52:34;;;;;;;9.97;5.20;;;6.60;99.90;;;;;;4428122;32;20382;-70
2022/03/09 07:55:04;;;;;;;11.87;5.20;;;6.70;99.90;;;;;;4428386;32;20223;-71
2022/03/09 07:57:31;;;;;;;11.80;5.17;;;6.70;99.90;;;;;;4426946;32;20201;-71
2022/03/09 07:59:59;;;;;;;11.13;4.80;;;6.90;99.90;;;;;;4428755;32;20173;-70
2022/03/09 08:02:26;;;;;;;8.30;4.10;;;6.90;99.90;;;;;;4441073;32;20476;-70
2022/03/09 08:04:53;;;;;;;8.57;4.67;;;7.00;99.90;;;;;;4418926;32;20250;-68
2022/03/09 08:07:19;;;;;;;11.23;4.07;;;7.00;99.90;;;;;;4411431;32;20198;-68
2022/03/09 08:09:46;;;;;;;8.43;4.03;;;7.00;99.90;;;;;;4411893;32;20262;-69
2022/03/09 08:12:13;;;;;;;10.00;4.60;;;7.00;99.90;;;;;;4411239;32;20239;-69
2022/03/09 08:14:40;;;;;;;11.27;4.13;;;7.10;99.90;;;;;;4412116;32;20241;-70
2022/03/09 08:17:09;;;;;;;9.37;4.23;;;7.00;99.90;;;;;;4413194;32;20203;-69
2022/03/09 08:19:36;;;;;;;11.27;4.73;;;7.10;99.90;;;;;;4411303;32;20190;-70
2022/03/09 08:22:03;;;;;;;8.07;4.30;;;7.20;99.90;;;;;;4426148;32;20417;-68
2022/03/09 08:24:32;;;;;;;8.97;4.10;;;7.20;99.90;;;;;;4426220;32;20496;-68
2022/03/09 08:27:02;;;;;;;9.33;4.50;;;7.20;99.90;;;;;;4424936;32;20185;-69
2022/03/09 08:29:30;;;;;;;12.83;4.70;;;7.20;99.90;;;;;;4411896;32;20228;-67
2022/03/09 08:31:57;;;;;;;8.83;4.63;;;7.10;99.90;;;;;;4412715;32;20925;-67
2022/03/09 08:34:24;;;;;;;7.80;4.00;;;7.10;99.90;;;;;;4426475;32;20166;-70
2022/03/09 08:36:51;;;;;;;9.43;4.73;;;7.20;99.90;;;;;;4410924;32;20246;-68
2022/03/09 08:39:18;;;;;;;12.63;4.33;;;7.50;99.90;;;;;;4412043;32;20517;-67
2022/03/09 08:41:44;;;;;;;10.83;4.57;;;7.50;99.90;;;;;;4410942;32;20201;-67
2022/03/09 08:44:31;;;;;;;12.27;4.33;;;7.60;99.90;;;;;;4414310;32;20185;-68
2022/03/09 08:46:59;;;;;;;9.83;4.53;;;7.50;99.90;;;;;;4426373;32;20227;-67
2022/03/09 08:49:27;;;;;;;9.23;4.10;;;7.40;99.90;;;;;;4425753;32;20223;-67
2022/03/09 08:51:53;;;;;;;8.17;4.13;;;7.40;99.90;;;;;;4427605;32;20185;-66
2022/03/09 08:54:21;;;;;;;10.43;4.13;;;7.40;99.90;;;;;;4427545;32;20238;-67
2022/03/09 08:56:48;;;;;;;7.00;3.90;;;7.50;99.90;;;;;;4425725;32;20200;-67
2022/03/09 08:59:15;;;;;;;8.27;3.73;;;7.70;99.90;;;;;;4427640;32;20221;-69
2022/03/09 09:01:42;;;;;;;7.63;3.83;;;7.80;99.90;;;;;;4426023;32;20213;-70
2022/03/09 09:04:14;;;;;;;9.73;3.60;;;7.90;99.90;;;;;;4427420;32;20238;-68
2022/03/09 09:06:41;;;;;;;7.20;3.53;;;7.80;99.90;;;;;;4441138;32;20221;-68
2022/03/09 09:09:08;;;;;;;8.27;3.50;;;7.70;99.90;;;;;;4426024;32;20222;-67
2022/03/09 09:11:35;;;;;;;5.90;3.40;;;7.70;99.90;;;;;;4425648;32;20221;-68
2022/03/09 09:14:02;;;;;;;7.37;3.50;;;7.80;99.90;;;;;;4425439;32;20224;-67
2022/03/09 09:16:29;;;;;;;7.33;3.07;;;7.90;99.90;;;;;;4426053;32;20192;-68
2022/03/09 09:18:56;;;;;;;7.43;3.13;;;8.00;99.90;;;;;;4425615;32;20176;-67
2022/03/09 09:21:23;;;;;;;6.77;3.00;;;8.20;99.90;;;;;;4427050;32;20196;-68
2022/03/09 09:23:50;;;;;;;9.33;3.03;;;8.10;99.90;;;;;;4425844;32;20208;-66
2022/03/09 09:26:18;;;;;;;6.00;2.67;;;8.30;99.90;;;;;;4427524;32;20253;-68
2022/03/09 09:29:06;;;;;;;5.00;2.50;;;8.50;99.90;;;;;;4440627;32;20220;-67
2022/03/09 09:31:33;;;;;;;7.03;2.70;;;8.50;99.90;;;;;;4425502;32;20518;-67
2022/03/09 09:34:00;;;;;;;5.83;3.00;;;8.70;99.90;;;;;;4426358;32;20162;-68
2022/03/09 09:36:27;;;;;;;5.50;2.93;;;8.80;99.90;;;;;;4425359;32;20175;-69
2022/03/09 09:38:54;;;;;;;4.53;2.90;;;9.00;99.90;;;;;;4425389;32;20183;-69
2022/03/09 09:41:24;;;;;;;6.60;2.80;;;8.90;99.90;;;;;;4439305;32;20170;-67
2022/03/09 09:43:52;;;;;;;10.50;3.37;;;9.00;99.90;;;;;;4427588;32;20204;-72
2022/03/09 09:46:18;;;;;;;5.57;2.90;;;8.90;99.90;;;;;;4425729;32;20201;-66
2022/03/09 09:48:46;;;;;;;5.50;2.87;;;8.80;99.90;;;;;;4440606;32;20169;-64
2022/03/09 09:51:13;;;;;;;7.43;2.77;;;8.70;99.90;;;;;;4440510;32;20228;-66
2022/03/09 09:53:44;;;;;;;6.17;2.90;;;8.90;99.90;;;;;;4427174;32;20209;-65
2022/03/09 09:56:13;;;;;;;5.23;2.50;;;9.00;99.90;;;;;;4426710;32;20228;-65
2022/03/09 09:58:42;;;;;;;6.00;3.00;;;9.00;99.90;;;;;;4441084;32;20183;-66
2022/03/09 10:01:10;;;;;;;7.47;2.97;;;8.90;99.90;;;;;;4425020;32;20177;-65
2022/03/09 10:03:37;;;;;;;9.97;3.83;;;9.00;99.90;;;;;;4425162;32;20179;-64
2022/03/09 10:06:04;;;;;;;7.53;2.80;;;9.00;99.90;;;;;;4425329;32;20231;-64
2022/03/09 10:08:35;;;;;;;7.07;2.90;;;9.00;99.90;;;;;;4426978;32;20367;-63
2022/03/09 10:11:04;;;;;;;6.13;2.93;;;9.10;99.90;;;;;;4438965;32;20531;-67
2022/03/09 10:13:38;;;;;;;6.97;2.80;;;9.30;99.90;;;;;;4424848;32;20547;-67
2022/03/09 10:16:20;;;;;;;5.10;2.70;;;9.40;99.90;;;;;;4426237;32;20196;-66
2022/03/09 10:18:49;;;;;;;4.70;2.73;;;9.60;99.90;;;;;;4426689;32;20204;-65
2022/03/09 10:21:25;;;;;;;6.77;3.00;;;9.60;99.90;;;;;;4426597;32;20217;-64
2022/03/09 10:24:06;;;;;;;6.72;3.37;;;9.70;99.90;;;;;;4426087;32;20037;-64
2022/03/09 10:26:38;;;;;;;5.53;2.80;;;9.70;99.90;;;;;;4427086;32;20201;-65
2022/03/09 10:29:10;;;;;;;8.33;3.00;;;9.60;99.90;;;;;;4424906;32;20570;-66
2022/03/09 10:31:46;;;;;;;6.33;2.80;;;9.20;99.90;;;;;;4425208;32;20201;-65
2022/03/09 10:34:24;;;;;;;5.57;2.73;;;8.90;99.90;;;;;;4425639;32;20201;-64
2022/03/09 10:37:03;;;;;;;5.93;3.10;;;8.90;99.90;;;;;;4425054;32;20260;-65
2022/03/09 10:39:39;;;;;;;5.80;2.60;;;8.80;99.90;;;;;;4425652;32;20585;-66
2022/03/09 10:42:23;;;;;;;6.43;2.73;;;8.80;99.90;;;;;;4425027;32;20198;-65
2022/03/09 10:44:51;;;;;;;5.17;2.60;;;8.80;99.90;;;;;;4425914;32;20594;-65
2022/03/09 10:47:48;;;;;;;7.40;2.40;;;8.80;99.90;;;;;;4426230;32;20220;-65
2022/03/09 10:50:25;;;;;;;5.03;2.57;;;8.90;99.90;;;;;;4366208;32;20247;-66
2022/03/09 10:53:00;;;;;;;5.23;2.60;;;9.00;99.90;;;;;;4367545;32;20245;-66
2022/03/09 10:55:33;;;;;;;4.50;2.63;;;9.10;99.90;;;;;;4368207;32;20324;-67
2022/03/09 10:58:13;;;;;;;4.90;2.60;;;9.10;99.90;;;;;;4379458;32;20211;-67
2022/03/09 11:00:48;;;;;;;6.47;2.87;;;9.10;99.90;;;;;;4368022;32;20179;-65
2022/03/09 11:03:34;;;;;;;5.27;2.50;;;9.10;99.90;;;;;;4378471;32;20545;-65
2022/03/09 11:06:03;;;;;;;10.57;2.90;;;9.10;99.90;;;;;;4380067;32;20584;-68
2022/03/09 11:08:34;;;;;;;6.70;3.10;;;9.10;99.90;;;;;;4378787;32;20158;-66
2022/03/09 11:11:02;;;;;;;6.17;2.90;;;9.20;99.90;;;;;;4365878;32;20590;-66
2022/03/09 11:13:32;;;;;;;6.27;3.30;;;9.30;99.90;;;;;;4379694;32;20482;-66
2022/03/09 11:15:59;;;;;;;7.10;3.20;;;9.20;99.90;;;;;;4367767;32;20193;-63
2022/03/09 11:18:31;;;;;;;5.47;3.13;;;9.20;99.90;;;;;;4367330;32;20243;-65
2022/03/09 11:21:04;;;;;;;7.50;3.23;;;9.20;99.90;;;;;;4366038;32;20242;-66
2022/03/09 11:23:33;;;;;;;7.27;2.77;;;9.20;99.90;;;;;;4380473;32;20430;-65
2022/03/09 11:26:04;;;;;;;6.03;2.70;;;9.20;99.90;;;;;;4379804;32;20214;-66
2022/03/09 11:28:34;;;;;;;4.40;2.73;;;9.10;99.90;;;;;;4428608;32;20201;-65
2022/03/09 11:31:07;;;;;;;6.70;2.60;;;9.10;99.90;;;;;;4428465;32;20181;-66
2022/03/09 11:33:36;;;;;;;5.00;2.80;;;9.00;99.90;;;;;;4427792;32;20439;-67
2022/03/09 11:36:24;;;;;;;5.87;3.10;;;8.90;99.90;;;;;;4442948;32;20154;-66
2022/03/09 11:38:53;;;;;;;5.67;3.20;;;8.60;99.90;;;;;;4442024;32;20417;-67
2022/03/09 11:41:24;;;;;;;6.43;3.40;;;8.60;99.90;;;;;;4428317;32;20202;-66
2022/03/09 11:43:53;;;;;;;4.67;3.10;;;8.60;99.90;;;;;;4428826;32;20520;-66
2022/03/09 11:46:21;;;;;;;7.30;3.10;;;8.50;99.90;;;;;;4429156;32;20204;-67
2022/03/09 11:48:55;;;;;;;5.73;2.80;;;8.50;99.90;;;;;;4426648;32;20273;-67
2022/03/09 11:51:26;;;;;;;5.93;3.20;;;8.50;99.90;;;;;;4428465;32;20523;-67
2022/03/09 11:53:55;;;;;;;7.77;3.73;;;8.40;99.90;;;;;;4428664;32;20567;-67
2022/03/09 11:56:29;;;;;;;5.00;3.17;;;8.30;99.90;;;;;;4441211;32;20223;-68
2022/03/09 11:59:15;;;;;;;6.73;2.93;;;8.30;99.90;;;;;;4426716;32;20431;-68
2022/03/09 12:01:58;;;;;;;6.97;3.53;;;8.30;99.90;;;;;;4428544;32;20212;-68
2022/03/09 12:04:40;;;;;;;8.60;3.57;;;8.50;99.90;;;;;;4415307;32;20195;-67
2022/03/09 12:07:09;;;;;;;7.20;3.30;;;8.50;99.90;;;;;;4426192;32;20220;-69
2022/03/09 12:09:53;;;;;;;6.40;3.60;;;8.50;99.90;;;;;;4427574;32;20206;-69
2022/03/09 12:12:21;;;;;;;7.73;3.33;;;8.50;99.90;;;;;;4423048;32;20209;-69
2022/03/09 12:14:57;;;;;;;7.80;3.50;;;8.30;99.90;;;;;;4421433;32;20263;-68
2022/03/09 12:17:32;;;;;;;8.33;3.20;;;8.20;99.90;;;;;;4409380;32;20185;-69
2022/03/09 12:20:27;;;;;;;7.13;3.30;;;8.10;99.90;;;;;;4421096;32;20209;-70
2022/03/09 12:23:00;;;;;;;7.80;3.70;;;7.90;99.90;;;;;;4422901;32;20176;-68
2022/03/09 12:25:44;;;;;;;8.43;3.57;;;7.70;99.90;;;;;;4408497;32;20438;-69
2022/03/09 12:28:32;;;;;;;8.83;3.50;;;7.60;99.90;;;;;;4422601;32;20242;-67
2022/03/09 12:31:02;;;;;;;6.17;3.63;;;7.60;99.90;;;;;;4409884;32;20217;-71
2022/03/09 12:33:37;;;;;;;8.90;3.87;;;7.60;99.90;;;;;;4408347;32;20224;-69
2022/03/09 12:36:13;;;;;;;8.27;3.70;;;7.40;99.90;;;;;;4422695;32;20194;-69
2022/03/09 12:39:01;;;;;;;9.07;4.03;;;7.40;99.90;;;;;;4421626;32;20189;-69
2022/03/09 12:41:32;;;;;;;9.23;4.30;;;7.50;99.90;;;;;;4421324;32;20203;-70
2022/03/09 12:44:03;;;;;;;8.03;4.00;;;7.50;99.90;;;;;;4422579;32;20243;-70
2022/03/09 12:46:32;;;;;;;8.03;4.37;;;7.60;99.90;;;;;;4409722;32;20149;-74
2022/03/09 12:49:17;;;;;;;8.13;4.50;;;7.60;99.90;;;;;;4423107;32;20188;-72
2022/03/09 12:51:53;;;;;;;10.10;4.37;;;7.70;99.90;;;;;;4411000;32;20144;-72
2022/03/09 12:54:33;;;;;;;9.60;4.13;;;7.70;99.90;;;;;;4421888;32;20181;-72
2022/03/09 12:57:12;;;;;;;8.70;4.57;;;7.70;99.90;;;;;;4410202;32;20174;-71
2022/03/09 12:59:42;;;;;;;8.57;4.30;;;7.60;99.90;;;;;;4422397;32;20232;-73
2022/03/09 13:02:09;;;;;;;7.97;4.30;;;7.70;99.90;;;;;;4411138;32;20197;-71
2022/03/09 13:04:36;;;;;;;10.60;5.40;;;7.80;99.90;;;;;;4410903;32;20433;-73